createdAt,value
2023-01-25T00:01:03.499Z,20.83
2023-01-25T00:02:07.998Z,19.77
2023-01-25T00:03:10.009Z,21.90
2023-01-25T00:04:11.874Z,25.97
2023-01-25T00:05:13.948Z,25.60
2023-01-25T00:06:15.349Z,23.70
2023-01-25T00:07:16.947Z,23.93
2023-01-25T00:08:21.568Z,22.90
2023-01-25T00:09:23.627Z,23.17
2023-01-25T00:10:25.365Z,23.13
2023-01-25T00:11:27.024Z,20.80
2023-01-25T00:12:28.592Z,20.83
2023-01-25T00:13:30.376Z,20.67
2023-01-25T00:14:31.797Z,22.43
2023-01-25T00:15:35.954Z,21.97
2023-01-25T00:16:41.371Z,24.17
2023-01-25T00:17:43.106Z,21.77
2023-01-25T00:18:48.172Z,21.77
2023-01-25T00:19:49.632Z,21.43
2023-01-25T00:20:51.185Z,22.63
2023-01-25T00:21:52.733Z,21.20
2023-01-25T00:22:54.222Z,19.87
2023-01-25T00:23:55.753Z,21.20
2023-01-25T00:24:57.694Z,21.13
2023-01-25T00:25:59.328Z,22.23
2023-01-25T00:27:01.651Z,21.03
2023-01-25T00:28:03.584Z,21.23
2023-01-25T00:29:05.111Z,20.80
2023-01-25T00:30:07.252Z,22.27
2023-01-25T00:31:11.372Z,21.87
2023-01-25T00:32:13.156Z,19.83
2023-01-25T00:33:18.011Z,20.73
2023-01-25T00:34:39.703Z,20.60
2023-01-25T00:35:41.109Z,22.03
2023-01-25T00:36:44.429Z,23.27
2023-01-25T00:37:50.028Z,22.60
2023-01-25T00:38:53.703Z,22.83
2023-01-25T00:39:58.473Z,21.50
2023-01-25T00:41:00.326Z,22.80
2023-01-25T00:42:02.912Z,21.40
2023-01-25T00:43:04.657Z,21.53
2023-01-25T00:44:07.595Z,20.80
2023-01-25T00:45:10.847Z,22.03
2023-01-25T00:46:14.973Z,20.93
2023-01-25T00:47:16.915Z,20.17
2023-01-25T00:48:18.418Z,23.87
2023-01-25T00:49:24.171Z,22.00
2023-01-25T00:50:26.726Z,20.87
2023-01-25T00:51:37.358Z,25.63
2023-01-25T00:52:39.605Z,22.37
2023-01-25T00:53:41.528Z,20.90
2023-01-25T00:54:43.201Z,22.43
2023-01-25T00:55:55.776Z,19.83
2023-01-25T00:56:57.510Z,22.17
2023-01-25T00:57:59.138Z,20.27
2023-01-25T00:59:00.750Z,23.20
2023-01-25T01:00:02.727Z,19.93
2023-01-25T01:01:04.757Z,21.43
2023-01-25T01:02:06.509Z,21.07
2023-01-25T01:03:08.035Z,21.17
2023-01-25T01:04:12.667Z,21.47
2023-01-25T01:05:17.265Z,22.43
2023-01-25T01:06:19.576Z,20.37
2023-01-25T01:07:21.521Z,20.13
2023-01-25T01:08:25.879Z,19.47
2023-01-25T01:09:28.221Z,17.07
2023-01-25T01:10:30.019Z,16.47
2023-01-25T01:11:31.867Z,16.83
2023-01-25T01:12:33.556Z,16.60
2023-01-25T01:13:35.271Z,16.60
2023-01-25T01:14:39.873Z,15.83
2023-01-25T01:15:41.752Z,18.13
2023-01-25T01:16:46.224Z,16.53
2023-01-25T01:17:47.880Z,17.00
2023-01-25T01:18:50.970Z,19.80
2023-01-25T01:19:55.921Z,20.17
2023-01-25T01:20:58.186Z,19.37
2023-01-25T01:21:59.808Z,18.27
2023-01-25T01:23:03.844Z,19.60
2023-01-25T01:24:10.892Z,18.87
2023-01-25T01:25:13.445Z,18.33
2023-01-25T01:26:19.557Z,21.23
2023-01-25T01:27:21.191Z,19.63
2023-01-25T01:28:23.277Z,19.53
2023-01-25T01:29:27.490Z,19.40
2023-01-25T01:30:29.301Z,19.23
2023-01-25T01:31:30.981Z,20.47
2023-01-25T01:32:44.644Z,20.03
2023-01-25T01:33:50.519Z,20.03
2023-01-25T01:34:52.068Z,20.90
2023-01-25T01:35:57.764Z,21.77
2023-01-25T01:36:59.427Z,20.70
2023-01-25T01:38:02.240Z,21.53
2023-01-25T01:39:03.903Z,19.47
2023-01-25T01:40:09.038Z,20.17
2023-01-25T01:41:11.088Z,18.60
2023-01-25T01:42:12.855Z,17.90
2023-01-25T01:43:22.421Z,18.50
2023-01-25T01:44:44.890Z,18.77
2023-01-25T01:46:10.398Z,20.37
2023-01-25T01:47:17.432Z,18.87
2023-01-25T01:48:29.052Z,17.57
2023-01-25T01:49:31.895Z,20.67
2023-01-25T01:50:39.131Z,18.13
2023-01-25T01:51:43.747Z,16.90
2023-01-25T01:52:50.491Z,17.97
2023-01-25T01:53:54.374Z,18.73
2023-01-25T01:54:58.512Z,17.00
2023-01-25T01:56:01.705Z,17.50
2023-01-25T01:57:05.965Z,17.23
2023-01-25T01:58:07.631Z,17.83
2023-01-25T01:59:09.712Z,16.47
2023-01-25T02:00:24.446Z,17.20
2023-01-25T02:01:25.972Z,18.40
2023-01-25T02:02:27.405Z,16.80
2023-01-25T02:03:29.552Z,14.13
2023-01-25T02:04:30.939Z,15.97
2023-01-25T02:06:01.844Z,15.07
2023-01-25T02:07:25.322Z,14.80
2023-01-25T02:08:27.750Z,15.97
2023-01-25T02:09:32.114Z,14.87
2023-01-25T02:10:34.153Z,14.67
2023-01-25T02:11:36.013Z,16.57
2023-01-25T02:12:38.190Z,13.63
2023-01-25T02:13:42.172Z,15.03
2023-01-25T02:14:48.792Z,15.93
2023-01-25T02:15:53.575Z,15.77
2023-01-25T02:16:55.399Z,17.47
2023-01-25T02:17:56.789Z,15.07
2023-01-25T02:18:58.805Z,14.03
2023-01-25T02:20:05.860Z,14.57
2023-01-25T02:21:07.218Z,15.63
2023-01-25T02:22:10.613Z,16.20
2023-01-25T02:23:14.806Z,15.57
2023-01-25T02:24:19.922Z,15.93
2023-01-25T02:25:21.390Z,14.77
2023-01-25T02:26:23.297Z,15.30
2023-01-25T02:27:26.542Z,15.97
2023-01-25T02:28:38.285Z,16.30
2023-01-25T02:29:39.851Z,15.97
2023-01-25T02:30:42.185Z,16.30
2023-01-25T02:31:44.674Z,14.63
2023-01-25T02:32:46.089Z,16.50
2023-01-25T02:33:48.066Z,15.00
2023-01-25T02:34:49.379Z,16.67
2023-01-25T02:35:54.174Z,15.63
2023-01-25T02:36:55.571Z,15.37
2023-01-25T02:37:56.874Z,15.13
2023-01-25T02:39:07.016Z,14.83
2023-01-25T02:40:08.893Z,14.47
2023-01-25T02:41:16.105Z,13.87
2023-01-25T02:42:17.633Z,13.70
2023-01-25T02:43:19.576Z,14.00
2023-01-25T02:44:25.802Z,12.13
2023-01-25T02:45:29.417Z,13.07
2023-01-25T02:46:32.497Z,11.30
2023-01-25T02:47:33.906Z,12.07
2023-01-25T02:48:36.281Z,12.50
2023-01-25T02:49:38.061Z,11.43
2023-01-25T02:50:41.699Z,12.37
2023-01-25T02:51:44.354Z,11.77
2023-01-25T02:52:45.776Z,11.23
2023-01-25T02:53:47.243Z,11.87
2023-01-25T02:54:49.734Z,11.10
2023-01-25T02:55:51.052Z,13.00
2023-01-25T02:56:52.679Z,12.23
2023-01-25T02:57:55.523Z,12.27
2023-01-25T02:58:56.882Z,12.63
2023-01-25T02:59:58.237Z,11.90
2023-01-25T03:01:00.364Z,12.43
2023-01-25T03:02:02.264Z,13.33
2023-01-25T03:03:04.816Z,12.37
2023-01-25T03:04:06.752Z,13.17
2023-01-25T03:05:08.509Z,11.97
2023-01-25T03:06:10.370Z,12.23
2023-01-25T03:07:11.870Z,12.87
2023-01-25T03:08:13.390Z,12.27
2023-01-25T03:09:15.498Z,11.63
2023-01-25T03:10:20.509Z,12.73
2023-01-25T03:11:22.133Z,12.57
2023-01-25T03:12:23.475Z,12.00
2023-01-25T03:13:25.280Z,12.77
2023-01-25T03:14:26.983Z,11.87
2023-01-25T03:15:28.326Z,14.17
2023-01-25T03:16:30.511Z,14.07
2023-01-25T03:17:31.967Z,11.13
2023-01-25T03:18:33.709Z,11.93
2023-01-25T03:19:35.090Z,12.87
2023-01-25T03:20:36.743Z,12.13
2023-01-25T03:21:39.873Z,11.47
2023-01-25T03:22:41.785Z,11.53
2023-01-25T03:23:44.345Z,11.77
2023-01-25T03:24:47.745Z,12.77
2023-01-25T03:25:49.132Z,11.83
2023-01-25T03:27:10.831Z,11.77
2023-01-25T03:28:23.856Z,12.40
2023-01-25T03:29:25.303Z,11.43
2023-01-25T03:30:27.073Z,12.07
2023-01-25T03:31:29.016Z,13.07
2023-01-25T03:32:31.456Z,12.27
2023-01-25T03:33:37.890Z,11.63
2023-01-25T03:34:39.745Z,13.10
2023-01-25T03:35:41.446Z,12.00
2023-01-25T03:36:42.803Z,12.23
2023-01-25T03:37:44.660Z,10.90
2023-01-25T03:38:46.100Z,13.27
2023-01-25T03:39:47.506Z,10.20
2023-01-25T03:40:49.187Z,12.80
2023-01-25T03:41:50.524Z,11.63
2023-01-25T03:42:53.559Z,12.10
2023-01-25T03:43:55.402Z,10.93
2023-01-25T03:44:57.036Z,11.97
2023-01-25T03:45:59.563Z,10.23
2023-01-25T03:47:00.918Z,12.77
2023-01-25T03:48:03.536Z,10.37
2023-01-25T03:49:04.931Z,11.30
2023-01-25T03:50:07.676Z,10.70
2023-01-25T03:51:09.219Z,11.10
2023-01-25T03:52:11.199Z,12.90
2023-01-25T03:53:27.270Z,10.10
2023-01-25T03:54:30.203Z,11.57
2023-01-25T03:55:31.934Z,11.17
2023-01-25T03:56:34.073Z,8.87
2023-01-25T03:57:43.226Z,9.60
2023-01-25T03:58:44.679Z,9.77
2023-01-25T03:59:47.078Z,10.63
2023-01-25T04:00:48.554Z,10.00
2023-01-25T04:01:49.951Z,9.87
2023-01-25T04:02:51.811Z,10.43
2023-01-25T04:03:54.093Z,10.20
2023-01-25T04:04:55.754Z,10.30
2023-01-25T04:05:57.996Z,10.80
2023-01-25T04:06:59.331Z,10.77
2023-01-25T04:08:03.651Z,10.30
2023-01-25T04:09:11.235Z,10.57
2023-01-25T04:10:15.646Z,10.30
2023-01-25T04:11:20.321Z,10.33
2023-01-25T04:12:23.307Z,10.43
2023-01-25T04:13:24.889Z,10.87
2023-01-25T04:14:42.747Z,11.40
2023-01-25T04:15:46.152Z,12.47
2023-01-25T04:16:57.084Z,10.03
2023-01-25T04:17:58.422Z,12.03
2023-01-25T04:18:59.744Z,10.40
2023-01-25T04:20:02.765Z,12.23
2023-01-25T04:21:10.522Z,11.23
2023-01-25T04:22:12.860Z,10.73
2023-01-25T04:23:14.198Z,11.20
2023-01-25T04:24:16.950Z,12.03
2023-01-25T04:25:19.077Z,10.50
2023-01-25T04:26:24.817Z,10.90
2023-01-25T04:27:33.061Z,10.67
2023-01-25T04:28:44.574Z,11.43
2023-01-25T04:29:45.945Z,13.03
2023-01-25T04:30:52.911Z,12.00
2023-01-25T04:31:55.179Z,11.03
2023-01-25T04:33:02.060Z,12.00
2023-01-25T04:34:05.238Z,8.87
2023-01-25T04:35:07.269Z,10.40
2023-01-25T04:36:09.047Z,9.67
2023-01-25T04:37:10.467Z,10.17
2023-01-25T04:38:21.964Z,10.70
2023-01-25T04:39:23.383Z,10.23
2023-01-25T04:40:25.336Z,10.93
2023-01-25T04:41:29.127Z,10.20
2023-01-25T04:42:32.002Z,10.73
2023-01-25T04:43:33.616Z,10.80
2023-01-25T04:44:40.171Z,9.23
2023-01-25T04:45:41.829Z,11.13
2023-01-25T04:46:49.534Z,12.47
2023-01-25T04:47:59.122Z,10.53
2023-01-25T04:49:01.702Z,11.40
2023-01-25T04:50:03.101Z,11.50
2023-01-25T04:51:05.718Z,12.13
2023-01-25T04:52:08.629Z,10.07
2023-01-25T04:53:10.977Z,11.17
2023-01-25T04:54:12.954Z,11.37
2023-01-25T04:55:14.517Z,11.80
2023-01-25T04:56:17.935Z,11.00
2023-01-25T04:57:25.043Z,10.87
2023-01-25T04:58:27.414Z,10.43
2023-01-25T04:59:28.804Z,10.20
2023-01-25T05:00:31.161Z,14.00
2023-01-25T05:01:34.826Z,11.73
2023-01-25T05:02:42.459Z,9.70
2023-01-25T05:03:43.904Z,11.00
2023-01-25T05:05:11.858Z,9.30
2023-01-25T05:06:13.535Z,11.17
2023-01-25T05:07:14.999Z,10.47
2023-01-25T05:08:16.649Z,10.80
2023-01-25T05:09:18.037Z,11.07
2023-01-25T05:10:20.659Z,9.93
2023-01-25T05:11:45.201Z,10.50
2023-01-25T05:12:54.324Z,12.50
2023-01-25T05:13:55.720Z,10.43
2023-01-25T05:15:02.730Z,11.40
2023-01-25T05:16:04.369Z,10.53
2023-01-25T05:17:06.589Z,11.30
2023-01-25T05:18:08.466Z,13.27
2023-01-25T05:19:10.137Z,9.83
2023-01-25T05:20:37.705Z,10.20
2023-01-25T05:21:57.726Z,10.03
2023-01-25T05:23:02.103Z,9.77
2023-01-25T05:24:05.254Z,9.60
2023-01-25T05:25:28.028Z,11.97
2023-01-25T05:26:48.360Z,10.57
2023-01-25T05:27:50.363Z,9.90
2023-01-25T05:29:14.693Z,10.00
2023-01-25T05:30:24.539Z,10.00
2023-01-25T05:31:35.189Z,9.80
2023-01-25T05:32:36.904Z,9.97
2023-01-25T05:33:38.328Z,9.97
2023-01-25T05:34:39.990Z,11.70
2023-01-25T05:35:41.374Z,10.20
2023-01-25T05:36:43.660Z,10.80
2023-01-25T05:37:45.046Z,12.57
2023-01-25T05:38:53.288Z,11.30
2023-01-25T05:39:54.631Z,10.37
2023-01-25T05:40:57.792Z,12.27
2023-01-25T05:41:59.298Z,10.90
2023-01-25T05:43:00.755Z,11.10
2023-01-25T05:44:04.099Z,10.97
2023-01-25T05:45:07.430Z,12.03
2023-01-25T05:46:10.233Z,11.10
2023-01-25T05:47:13.293Z,12.93
2023-01-25T05:48:15.008Z,12.30
2023-01-25T05:49:18.218Z,15.17
2023-01-25T05:50:19.751Z,15.73
2023-01-25T05:51:33.370Z,11.50
2023-01-25T05:52:34.697Z,11.03
2023-01-25T05:53:36.473Z,11.97
2023-01-25T05:54:38.059Z,12.43
2023-01-25T05:55:40.661Z,13.80
2023-01-25T05:56:49.807Z,11.50
2023-01-25T05:57:51.528Z,11.47
2023-01-25T05:58:54.090Z,12.27
2023-01-25T05:59:55.456Z,14.33
2023-01-25T06:01:00.110Z,11.17
2023-01-25T06:02:12.190Z,12.70
2023-01-25T06:03:14.506Z,12.40
2023-01-25T06:04:16.222Z,12.50
2023-01-25T06:05:17.558Z,13.47
2023-01-25T06:06:19.069Z,12.13
2023-01-25T06:07:22.023Z,13.43
2023-01-25T06:08:25.227Z,13.67
2023-01-25T06:09:28.030Z,14.40
2023-01-25T06:10:32.896Z,15.27
2023-01-25T06:11:38.458Z,14.37
2023-01-25T06:12:40.490Z,15.30
2023-01-25T06:13:42.093Z,16.20
2023-01-25T06:14:43.405Z,16.20
2023-01-25T06:15:51.719Z,13.73
2023-01-25T06:17:13.321Z,14.97
2023-01-25T06:18:31.526Z,16.27
2023-01-25T06:19:44.018Z,14.63
2023-01-25T06:20:57.110Z,14.30
2023-01-25T06:22:10.010Z,14.87
2023-01-25T06:23:11.378Z,15.73
2023-01-25T06:24:12.786Z,16.13
2023-01-25T06:25:14.174Z,17.10
2023-01-25T06:26:15.641Z,16.33
2023-01-25T06:27:16.934Z,16.03
2023-01-25T06:28:18.253Z,15.57
2023-01-25T06:29:19.788Z,15.53
2023-01-25T06:30:21.199Z,15.13
2023-01-25T06:31:22.645Z,14.93
2023-01-25T06:32:25.874Z,18.73
2023-01-25T06:33:27.253Z,15.10
2023-01-25T06:34:29.009Z,13.93
2023-01-25T06:35:34.052Z,15.13
2023-01-25T06:36:35.532Z,15.50
2023-01-25T06:37:36.894Z,14.67
2023-01-25T06:38:38.654Z,16.37
2023-01-25T06:39:39.989Z,13.73
2023-01-25T06:40:41.350Z,16.37
2023-01-25T06:41:42.699Z,14.70
2023-01-25T06:42:45.209Z,15.63
2023-01-25T06:43:47.865Z,16.13
2023-01-25T06:44:49.273Z,15.67
2023-01-25T06:45:50.593Z,14.90
2023-01-25T06:46:51.975Z,14.63
2023-01-25T06:47:53.403Z,15.23
2023-01-25T06:48:54.751Z,15.23
2023-01-25T06:49:56.062Z,14.47
2023-01-25T06:50:58.472Z,15.60
2023-01-25T06:52:01.243Z,14.77
2023-01-25T06:53:02.674Z,16.43
2023-01-25T06:54:04.512Z,15.20
2023-01-25T06:55:08.329Z,14.57
2023-01-25T06:56:11.993Z,15.47
2023-01-25T06:57:13.520Z,15.93
2023-01-25T06:58:14.864Z,16.00
2023-01-25T06:59:16.224Z,15.23
2023-01-25T07:00:17.829Z,15.17
2023-01-25T07:01:21.163Z,14.80
2023-01-25T07:02:22.595Z,15.40
2023-01-25T07:03:23.920Z,15.07
2023-01-25T07:04:25.287Z,15.53
2023-01-25T07:05:26.633Z,15.73
2023-01-25T07:06:34.045Z,16.87
2023-01-25T07:07:35.381Z,15.53
2023-01-25T07:08:36.997Z,16.33
2023-01-25T07:09:38.412Z,16.17
2023-01-25T07:10:39.826Z,17.37
2023-01-25T07:11:41.223Z,17.53
2023-01-25T07:12:42.563Z,14.77
2023-01-25T07:13:45.643Z,16.27
2023-01-25T07:14:48.473Z,16.67
2023-01-25T07:15:59.694Z,15.77
2023-01-25T07:17:02.961Z,15.50
2023-01-25T07:18:15.645Z,16.47
2023-01-25T07:19:17.907Z,14.77
2023-01-25T07:20:19.221Z,15.20
2023-01-25T07:21:22.092Z,17.00
2023-01-25T07:22:23.485Z,16.33
2023-01-25T07:23:27.019Z,14.30
2023-01-25T07:24:29.643Z,14.93
2023-01-25T07:25:30.943Z,16.07
2023-01-25T07:26:32.744Z,15.97
2023-01-25T07:27:35.011Z,19.10
2023-01-25T07:28:36.336Z,15.90
2023-01-25T07:29:37.659Z,14.50
2023-01-25T07:30:39.571Z,14.47
2023-01-25T07:31:41.767Z,16.53
2023-01-25T07:32:43.129Z,15.80
2023-01-25T07:33:47.440Z,14.03
2023-01-25T07:34:48.829Z,14.03
2023-01-25T07:35:51.104Z,16.07
2023-01-25T07:36:52.473Z,14.30
2023-01-25T07:37:55.201Z,14.50
2023-01-25T07:38:57.506Z,13.87
2023-01-25T07:39:59.015Z,16.57
2023-01-25T07:41:00.499Z,14.63
2023-01-25T07:42:02.059Z,15.83
2023-01-25T07:43:06.764Z,14.73
2023-01-25T07:44:11.028Z,14.23
2023-01-25T07:45:16.287Z,15.63
2023-01-25T07:46:17.621Z,14.13
2023-01-25T07:47:19.094Z,15.57
2023-01-25T07:48:21.006Z,16.63
2023-01-25T07:49:22.441Z,15.00
2023-01-25T07:50:23.745Z,18.60
2023-01-25T07:51:27.797Z,16.57
2023-01-25T07:52:29.146Z,19.13
2023-01-25T07:53:30.482Z,17.47
2023-01-25T07:54:31.815Z,16.97
2023-01-25T07:55:33.645Z,18.87
2023-01-25T07:56:37.665Z,16.23
2023-01-25T07:57:38.965Z,15.90
2023-01-25T07:58:40.545Z,16.87
2023-01-25T07:59:45.461Z,15.93
2023-01-25T08:00:46.791Z,14.70
2023-01-25T08:01:48.144Z,16.73
2023-01-25T08:02:50.302Z,17.50
2023-01-25T08:03:52.122Z,15.87
2023-01-25T08:04:53.985Z,18.10
2023-01-25T08:05:55.334Z,14.93
2023-01-25T08:06:56.838Z,15.90
2023-01-25T08:07:59.277Z,16.83
2023-01-25T08:09:01.997Z,18.40
2023-01-25T08:10:03.669Z,16.00
2023-01-25T08:11:10.516Z,13.87
2023-01-25T08:12:12.126Z,16.30
2023-01-25T08:13:13.528Z,18.07
2023-01-25T08:14:15.261Z,15.83
2023-01-25T08:15:16.749Z,16.73
2023-01-25T08:16:19.594Z,18.57
2023-01-25T08:17:20.897Z,18.37
2023-01-25T08:18:22.234Z,18.00
2023-01-25T08:19:24.901Z,18.03
2023-01-25T08:20:26.311Z,17.47
2023-01-25T08:21:30.759Z,16.53
2023-01-25T08:22:32.085Z,17.70
2023-01-25T08:23:33.506Z,15.80
2023-01-25T08:24:34.857Z,16.00
2023-01-25T08:25:36.254Z,14.10
2023-01-25T08:26:37.955Z,15.37
2023-01-25T08:27:39.274Z,16.93
2023-01-25T08:28:40.754Z,16.90
2023-01-25T08:29:42.080Z,16.83
2023-01-25T08:30:56.386Z,19.10
2023-01-25T08:31:58.880Z,17.43
2023-01-25T08:33:00.253Z,17.10
2023-01-25T08:34:01.773Z,17.90
2023-01-25T08:35:03.143Z,17.97
2023-01-25T08:36:05.428Z,17.13
2023-01-25T08:37:06.866Z,18.73
2023-01-25T08:38:08.177Z,17.83
2023-01-25T08:39:10.558Z,15.77
2023-01-25T08:40:13.878Z,15.40
2023-01-25T08:41:16.193Z,15.20
2023-01-25T08:42:17.588Z,16.67
2023-01-25T08:43:18.923Z,16.73
2023-01-25T08:44:24.137Z,17.60
2023-01-25T08:45:25.757Z,16.23
2023-01-25T08:46:30.323Z,18.53
2023-01-25T08:47:33.111Z,17.23
2023-01-25T08:48:34.621Z,16.10
2023-01-25T08:49:36.170Z,17.70
2023-01-25T08:50:37.698Z,14.13
2023-01-25T08:51:39.030Z,18.40
2023-01-25T08:52:40.333Z,19.87
2023-01-25T08:53:42.111Z,12.83
2023-01-25T08:54:44.294Z,22.63
2023-01-25T08:55:45.972Z,21.27
2023-01-25T08:56:47.382Z,16.77
2023-01-25T08:57:49.381Z,13.93
2023-01-25T08:58:51.237Z,16.50
2023-01-25T08:59:52.842Z,13.73
2023-01-25T09:00:54.346Z,14.63
2023-01-25T09:01:55.663Z,15.70
2023-01-25T09:02:58.872Z,14.83
2023-01-25T09:04:00.294Z,17.67
2023-01-25T09:05:02.135Z,15.37
2023-01-25T09:06:03.630Z,14.40
2023-01-25T09:07:06.045Z,15.13
2023-01-25T09:08:08.416Z,16.73
2023-01-25T09:09:11.165Z,15.23
2023-01-25T09:10:12.665Z,16.30
2023-01-25T09:11:15.438Z,14.50
2023-01-25T09:12:16.795Z,14.90
2023-01-25T09:13:18.206Z,15.33
2023-01-25T09:14:19.513Z,13.70
2023-01-25T09:15:22.634Z,14.43
2023-01-25T09:16:30.646Z,13.50
2023-01-25T09:17:32.071Z,14.97
2023-01-25T09:18:34.078Z,15.00
2023-01-25T09:19:35.377Z,14.07
2023-01-25T09:20:38.313Z,16.00
2023-01-25T09:21:39.728Z,14.53
2023-01-25T09:22:41.067Z,15.80
2023-01-25T09:23:51.104Z,14.13
2023-01-25T09:24:53.918Z,13.83
2023-01-25T09:26:04.333Z,15.13
2023-01-25T09:27:05.940Z,14.10
2023-01-25T09:28:11.352Z,14.67
2023-01-25T09:29:12.836Z,13.17
2023-01-25T09:30:18.811Z,15.03
2023-01-25T09:31:24.932Z,14.00
2023-01-25T09:32:36.664Z,13.63
2023-01-25T09:33:39.047Z,16.47
2023-01-25T09:34:40.425Z,13.23
2023-01-25T09:35:46.933Z,12.27
2023-01-25T09:36:48.285Z,13.90
2023-01-25T09:37:50.464Z,10.80
2023-01-25T09:38:51.924Z,11.73
2023-01-25T09:39:53.226Z,12.70
2023-01-25T09:41:12.613Z,12.80
2023-01-25T09:42:28.659Z,11.40
2023-01-25T09:43:36.041Z,11.03
2023-01-25T09:44:53.050Z,11.03
2023-01-25T09:45:54.364Z,16.00
2023-01-25T09:47:01.251Z,13.97
2023-01-25T09:48:09.268Z,12.57
2023-01-25T09:49:21.673Z,14.70
2023-01-25T09:50:37.120Z,16.87
2023-01-25T09:51:57.062Z,15.60
2023-01-25T09:53:13.621Z,13.97
2023-01-25T09:54:17.532Z,16.20
2023-01-25T09:55:20.875Z,17.90
2023-01-25T09:56:26.337Z,16.17
2023-01-25T09:57:31.995Z,15.07
2023-01-25T09:58:36.076Z,15.30
2023-01-25T09:59:40.879Z,13.00
2023-01-25T10:00:44.708Z,13.67
2023-01-25T10:01:55.199Z,18.27
2023-01-25T10:03:11.076Z,15.87
2023-01-25T10:04:21.080Z,14.93
2023-01-25T10:05:24.021Z,11.50
2023-01-25T10:06:30.412Z,13.97
2023-01-25T10:07:38.590Z,13.13
2023-01-25T10:08:49.453Z,14.53
2023-01-25T10:09:56.951Z,18.07
2023-01-25T10:11:12.723Z,14.20
2023-01-25T10:12:21.629Z,14.43
2023-01-25T10:13:24.004Z,13.10
2023-01-25T10:14:25.371Z,13.50
2023-01-25T10:15:33.268Z,13.50
2023-01-25T10:16:46.828Z,12.43
2023-01-25T10:18:08.464Z,14.70
2023-01-25T10:19:09.724Z,11.93
2023-01-25T10:20:20.284Z,13.87
2023-01-25T10:21:26.740Z,11.97
2023-01-25T10:22:29.918Z,11.23
2023-01-25T10:23:50.359Z,10.97
2023-01-25T10:25:06.568Z,10.17
2023-01-25T10:26:26.588Z,11.30
2023-01-25T10:27:50.653Z,10.70
2023-01-25T10:28:59.182Z,12.53
2023-01-25T10:30:07.760Z,13.87
2023-01-25T10:31:18.609Z,12.77
2023-01-25T10:32:24.800Z,13.10
2023-01-25T10:33:27.814Z,14.27
2023-01-25T10:34:31.249Z,14.97
2023-01-25T10:35:39.075Z,16.07
2023-01-25T10:36:43.654Z,16.60
2023-01-25T10:37:45.247Z,14.73
2023-01-25T10:38:47.491Z,25.27
2023-01-25T10:39:51.902Z,18.77
2023-01-25T10:40:56.927Z,17.53
2023-01-25T10:42:00.780Z,14.40
2023-01-25T10:43:15.429Z,16.00
2023-01-25T10:44:24.390Z,16.43
2023-01-25T10:45:25.717Z,16.67
2023-01-25T10:46:27.851Z,14.97
2023-01-25T10:47:31.563Z,13.50
2023-01-25T10:48:35.399Z,14.87
2023-01-25T10:49:46.302Z,12.80
2023-01-25T10:50:49.660Z,13.83
2023-01-25T10:51:51.407Z,16.13
2023-01-25T10:52:59.090Z,12.90
2023-01-25T10:54:13.978Z,14.00
2023-01-25T10:55:20.335Z,11.03
2023-01-25T10:56:24.244Z,10.70
2023-01-25T10:57:25.679Z,10.87
2023-01-25T10:58:30.268Z,12.10
2023-01-25T10:59:31.792Z,12.47
2023-01-25T11:00:33.368Z,10.80
2023-01-25T11:01:36.234Z,11.23
2023-01-25T11:02:48.193Z,11.83
2023-01-25T11:03:49.587Z,11.10
2023-01-25T11:04:51.015Z,12.43
2023-01-25T11:05:56.354Z,12.30
2023-01-25T11:07:02.499Z,13.63
2023-01-25T11:08:24.449Z,12.47
2023-01-25T11:09:36.607Z,15.00
2023-01-25T11:10:38.679Z,13.60
2023-01-25T11:11:41.476Z,14.00
2023-01-25T11:12:42.878Z,16.80
2023-01-25T11:13:44.298Z,17.13
2023-01-25T11:14:46.487Z,15.17
2023-01-25T11:15:50.992Z,13.60
2023-01-25T11:16:52.742Z,13.87
2023-01-25T11:18:07.526Z,13.27
2023-01-25T11:19:27.139Z,12.70
2023-01-25T11:20:28.426Z,14.97
2023-01-25T11:21:31.203Z,14.57
2023-01-25T11:22:32.792Z,14.03
2023-01-25T11:23:34.663Z,14.67
2023-01-25T11:24:36.220Z,15.00
2023-01-25T11:25:37.562Z,15.17
2023-01-25T11:26:39.917Z,14.13
2023-01-25T11:27:43.868Z,14.73
2023-01-25T11:28:50.882Z,14.43
2023-01-25T11:30:21.674Z,13.93
2023-01-25T11:31:23.250Z,14.30
2023-01-25T11:32:25.170Z,26.97
2023-01-25T11:33:26.631Z,16.77
2023-01-25T11:34:29.284Z,17.33
2023-01-25T11:35:32.810Z,16.70
2023-01-25T11:36:55.425Z,13.70
2023-01-25T11:38:03.469Z,12.23
2023-01-25T11:39:19.947Z,14.63
2023-01-25T11:40:24.655Z,14.13
2023-01-25T11:41:44.333Z,16.27
2023-01-25T11:42:46.580Z,15.53
2023-01-25T11:43:55.985Z,16.97
2023-01-25T11:45:14.023Z,15.37
2023-01-25T11:46:18.159Z,14.87
2023-01-25T11:47:27.354Z,13.33
2023-01-25T11:48:47.575Z,14.43
2023-01-25T11:49:54.182Z,15.07
2023-01-25T11:51:01.555Z,14.07
2023-01-25T11:52:09.054Z,14.40
2023-01-25T11:53:34.528Z,15.10
2023-01-25T11:54:35.952Z,17.67
2023-01-25T11:55:51.882Z,16.47
2023-01-25T11:57:00.636Z,15.20
2023-01-25T11:58:10.749Z,16.30
2023-01-25T11:59:12.305Z,19.47
2023-01-25T12:00:16.681Z,17.80
2023-01-25T12:01:26.820Z,15.17
2023-01-25T12:02:46.777Z,17.43
2023-01-25T12:04:02.014Z,13.00
2023-01-25T12:05:28.204Z,15.87
2023-01-25T12:06:29.729Z,15.47
2023-01-25T12:07:31.071Z,15.07
2023-01-25T12:08:33.083Z,13.80
2023-01-25T12:09:34.396Z,14.60
2023-01-25T12:10:44.191Z,15.40
2023-01-25T12:11:54.383Z,15.70
2023-01-25T12:13:14.728Z,15.30
2023-01-25T12:14:34.823Z,13.27
2023-01-25T12:15:53.513Z,15.23
2023-01-25T12:17:14.543Z,14.40
2023-01-25T12:18:34.880Z,16.10
2023-01-25T12:19:46.707Z,16.03
2023-01-25T12:21:05.792Z,15.77
2023-01-25T12:22:14.888Z,15.87
2023-01-25T12:23:21.927Z,17.47
2023-01-25T12:24:40.100Z,21.83
2023-01-25T12:25:47.297Z,16.67
2023-01-25T12:27:03.639Z,15.63
2023-01-25T12:28:23.145Z,16.13
2023-01-25T12:29:32.553Z,16.50
2023-01-25T12:30:43.350Z,17.53
2023-01-25T12:32:01.008Z,17.17
2023-01-25T12:33:14.384Z,16.63
2023-01-25T12:34:19.547Z,16.87
2023-01-25T12:35:24.060Z,20.73
2023-01-25T12:36:45.851Z,15.77
2023-01-25T12:37:47.940Z,16.87
2023-01-25T12:38:49.651Z,15.10
2023-01-25T12:39:54.111Z,16.03
2023-01-25T12:40:59.229Z,16.03
2023-01-25T12:42:06.583Z,15.93
2023-01-25T12:43:13.386Z,15.03
2023-01-25T12:44:20.759Z,16.33
2023-01-25T12:45:24.526Z,15.47
2023-01-25T12:46:31.850Z,16.00
2023-01-25T12:47:46.200Z,14.20
2023-01-25T12:48:50.512Z,18.47
2023-01-25T12:49:51.820Z,15.20
2023-01-25T12:50:57.650Z,17.80
2023-01-25T12:52:00.811Z,18.20
2023-01-25T12:53:07.279Z,14.20
2023-01-25T12:54:27.209Z,15.77
2023-01-25T12:55:29.172Z,16.80
2023-01-25T12:56:33.602Z,16.70
2023-01-25T12:57:53.906Z,19.13
2023-01-25T12:59:15.633Z,16.33
2023-01-25T13:00:31.872Z,15.50
2023-01-25T13:01:38.695Z,17.00
2023-01-25T13:02:45.842Z,16.93
2023-01-25T13:03:50.953Z,17.70
2023-01-25T13:05:13.306Z,19.53
2023-01-25T13:06:22.138Z,16.50
2023-01-25T13:07:43.696Z,18.83
2023-01-25T13:08:54.203Z,17.60
2023-01-25T13:09:58.731Z,16.03
2023-01-25T13:11:19.435Z,18.17
2023-01-25T13:12:20.909Z,17.53
2023-01-25T13:13:28.411Z,18.97
2023-01-25T13:14:39.741Z,17.60
2023-01-25T13:15:45.175Z,16.93
2023-01-25T13:16:50.180Z,17.23
2023-01-25T13:17:53.464Z,18.43
2023-01-25T13:18:54.820Z,16.27
2023-01-25T13:19:56.168Z,16.33
2023-01-25T13:20:58.790Z,16.50
2023-01-25T13:22:00.520Z,16.90
2023-01-25T13:23:02.035Z,17.63
2023-01-25T13:24:14.177Z,16.67
2023-01-25T13:25:20.408Z,17.47
2023-01-25T13:26:23.996Z,15.93
2023-01-25T13:27:27.215Z,19.50
2023-01-25T13:28:47.420Z,19.23
2023-01-25T13:29:54.959Z,16.23
2023-01-25T13:30:56.442Z,19.57
2023-01-25T13:31:59.383Z,18.23
2023-01-25T13:33:07.673Z,20.47
2023-01-25T13:34:10.204Z,17.00
2023-01-25T13:35:30.542Z,19.03
2023-01-25T13:36:41.025Z,20.30
2023-01-25T13:37:42.591Z,19.63
2023-01-25T13:38:43.959Z,18.67
2023-01-25T13:39:53.314Z,18.87
2023-01-25T13:41:04.889Z,17.80
2023-01-25T13:42:09.291Z,16.83
2023-01-25T13:43:20.549Z,18.87
2023-01-25T13:44:28.160Z,19.07
2023-01-25T13:45:30.157Z,16.97
2023-01-25T13:46:31.639Z,19.37
2023-01-25T13:47:37.856Z,19.53
2023-01-25T13:48:47.899Z,19.23
2023-01-25T13:49:49.358Z,18.37
2023-01-25T13:50:55.680Z,18.67
2023-01-25T13:51:59.127Z,19.13
2023-01-25T13:53:02.456Z,20.47
2023-01-25T13:54:04.189Z,17.47
2023-01-25T13:55:17.000Z,18.40
2023-01-25T13:56:27.189Z,17.43
2023-01-25T13:57:29.807Z,16.77
2023-01-25T13:58:32.494Z,22.10